sensor_id;sensor_type;location;lat;lon;timestamp;temperature;humidity
12959;DHT22;6544;51.666;6.634;2022-09-02T00:01:27;18.50;1.00
12959;DHT22;6544;51.666;6.634;2022-09-02T00:03:57;18.50;1.00
12959;DHT22;6544;51.666;6.634;2022-09-02T00:06:26;18.40;1.00
12959;DHT22;6544;51.666;6.634;2022-09-02T00:08:54;18.40;1.00
12959;DHT22;6544;51.666;6.634;2022-09-02T00:11:24;18.40;1.00
12959;DHT22;6544;51.666;6.634;2022-09-02T00:13:52;18.40;1.00
12959;DHT22;6544;51.666;6.634;2022-09-02T00:16:19;18.40;1.00
12959;DHT22;6544;51.666;6.634;2022-09-02T00:18:48;18.30;1.00
12959;DHT22;6544;51.666;6.634;2022-09-02T00:21:16;18.40;1.00
12959;DHT22;6544;51.666;6.634;2022-09-02T00:23:45;18.30;1.00
12959;DHT22;6544;51.666;6.634;2022-09-02T00:26:12;18.20;1.00
12959;DHT22;6544;51.666;6.634;2022-09-02T00:28:40;18.30;1.00
12959;DHT22;6544;51.666;6.634;2022-09-02T00:31:07;18.20;1.00
12959;DHT22;6544;51.666;6.634;2022-09-02T00:33:34;18.20;1.00
12959;DHT22;6544;51.666;6.634;2022-09-02T00:36:03;18.10;1.00
12959;DHT22;6544;51.666;6.634;2022-09-02T00:38:31;18.10;1.00
12959;DHT22;6544;51.666;6.634;2022-09-02T00:41:01;18.10;1.00
12959;DHT22;6544;51.666;6.634;2022-09-02T00:43:39;18.10;1.00
12959;DHT22;6544;51.666;6.634;2022-09-02T00:46:07;18.10;1.00
12959;DHT22;6544;51.666;6.634;2022-09-02T00:48:35;18.10;1.00
12959;DHT22;6544;51.666;6.634;2022-09-02T00:51:05;18.10;1.00
12959;DHT22;6544;51.666;6.634;2022-09-02T00:53:32;18.10;1.00
12959;DHT22;6544;51.666;6.634;2022-09-02T00:56:01;18.10;1.00
12959;DHT22;6544;51.666;6.634;2022-09-02T00:58:30;18.10;1.00
12959;DHT22;6544;51.666;6.634;2022-09-02T01:00:58;18.00;1.00
12959;DHT22;6544;51.666;6.634;2022-09-02T01:03:27;18.00;1.00
12959;DHT22;6544;51.666;6.634;2022-09-02T01:05:56;17.90;1.00
12959;DHT22;6544;51.666;6.634;2022-09-02T01:08:25;17.90;1.00
12959;DHT22;6544;51.666;6.634;2022-09-02T01:10:55;17.80;1.00
12959;DHT22;6544;51.666;6.634;2022-09-02T01:13:26;17.90;1.00
12959;DHT22;6544;51.666;6.634;2022-09-02T01:15:56;17.90;1.00
12959;DHT22;6544;51.666;6.634;2022-09-02T01:18:26;17.90;1.00
12959;DHT22;6544;51.666;6.634;2022-09-02T01:20:54;17.80;1.00
12959;DHT22;6544;51.666;6.634;2022-09-02T01:23:22;17.80;1.00
12959;DHT22;6544;51.666;6.634;2022-09-02T01:25:50;17.80;1.00
12959;DHT22;6544;51.666;6.634;2022-09-02T01:28:18;17.80;1.00
12959;DHT22;6544;51.666;6.634;2022-09-02T01:30:48;17.70;10.00
12959;DHT22;6544;51.666;6.634;2022-09-02T01:33:16;17.60;1.00
12959;DHT22;6544;51.666;6.634;2022-09-02T01:35:44;17.60;17.60
12959;DHT22;6544;51.666;6.634;2022-09-02T01:38:11;17.60;14.00
12959;DHT22;6544;51.666;6.634;2022-09-02T01:40:39;17.50;23.30
12959;DHT22;6544;51.666;6.634;2022-09-02T01:43:09;17.60;44.30
12959;DHT22;6544;51.666;6.634;2022-09-02T01:45:38;17.60;45.80
12959;DHT22;6544;51.666;6.634;2022-09-02T01:48:06;17.60;44.80
12959;DHT22;6544;51.666;6.634;2022-09-02T01:50:35;17.60;24.20
12959;DHT22;6544;51.666;6.634;2022-09-02T01:53:03;17.50;60.10
12959;DHT22;6544;51.666;6.634;2022-09-02T01:55:30;17.50;99.90
12959;DHT22;6544;51.666;6.634;2022-09-02T01:57:58;17.50;52.80
12959;DHT22;6544;51.666;6.634;2022-09-02T02:00:26;17.50;72.10
12959;DHT22;6544;51.666;6.634;2022-09-02T02:02:53;17.50;98.40
12959;DHT22;6544;51.666;6.634;2022-09-02T02:05:21;17.40;99.90
12959;DHT22;6544;51.666;6.634;2022-09-02T02:07:48;17.40;96.00
12959;DHT22;6544;51.666;6.634;2022-09-02T02:10:17;17.40;99.90
12959;DHT22;6544;51.666;6.634;2022-09-02T02:12:44;17.40;91.10
12959;DHT22;6544;51.666;6.634;2022-09-02T02:15:15;17.30;96.00
12959;DHT22;6544;51.666;6.634;2022-09-02T02:17:42;17.30;99.90
12959;DHT22;6544;51.666;6.634;2022-09-02T02:20:11;17.20;99.90
12959;DHT22;6544;51.666;6.634;2022-09-02T02:22:40;17.20;99.90
12959;DHT22;6544;51.666;6.634;2022-09-02T02:25:08;17.20;99.90
12959;DHT22;6544;51.666;6.634;2022-09-02T02:27:35;17.20;99.90
12959;DHT22;6544;51.666;6.634;2022-09-02T02:30:04;17.20;99.90
12959;DHT22;6544;51.666;6.634;2022-09-02T02:32:33;17.20;99.90
12959;DHT22;6544;51.666;6.634;2022-09-02T02:35:00;17.10;99.90
12959;DHT22;6544;51.666;6.634;2022-09-02T02:37:27;17.10;99.90
12959;DHT22;6544;51.666;6.634;2022-09-02T02:39:54;17.10;99.90
12959;DHT22;6544;51.666;6.634;2022-09-02T02:42:22;17.10;99.90
12959;DHT22;6544;51.666;6.634;2022-09-02T02:44:49;17.10;99.90
12959;DHT22;6544;51.666;6.634;2022-09-02T02:47:16;17.20;99.90
12959;DHT22;6544;51.666;6.634;2022-09-02T02:49:45;17.20;99.90
12959;DHT22;6544;51.666;6.634;2022-09-02T02:52:12;17.10;99.90
12959;DHT22;6544;51.666;6.634;2022-09-02T02:54:39;17.10;99.90
12959;DHT22;6544;51.666;6.634;2022-09-02T02:57:08;17.00;99.90
12959;DHT22;6544;51.666;6.634;2022-09-02T02:59:35;17.00;99.90
12959;DHT22;6544;51.666;6.634;2022-09-02T03:02:03;17.00;99.90
12959;DHT22;6544;51.666;6.634;2022-09-02T03:04:30;17.00;99.90
12959;DHT22;6544;51.666;6.634;2022-09-02T03:06:58;16.90;99.90
12959;DHT22;6544;51.666;6.634;2022-09-02T03:09:25;16.90;99.90
12959;DHT22;6544;51.666;6.634;2022-09-02T03:11:53;16.90;99.90
12959;DHT22;6544;51.666;6.634;2022-09-02T03:14:20;16.90;99.90
12959;DHT22;6544;51.666;6.634;2022-09-02T03:16:47;16.90;99.90
12959;DHT22;6544;51.666;6.634;2022-09-02T03:19:14;16.90;99.90
12959;DHT22;6544;51.666;6.634;2022-09-02T03:21:42;16.90;99.90
12959;DHT22;6544;51.666;6.634;2022-09-02T03:24:11;16.90;99.90
12959;DHT22;6544;51.666;6.634;2022-09-02T03:26:40;16.90;99.90
12959;DHT22;6544;51.666;6.634;2022-09-02T03:29:07;16.80;99.90
12959;DHT22;6544;51.666;6.634;2022-09-02T03:31:34;16.80;99.90
12959;DHT22;6544;51.666;6.634;2022-09-02T03:34:01;16.90;99.90
12959;DHT22;6544;51.666;6.634;2022-09-02T03:36:30;16.90;99.90
12959;DHT22;6544;51.666;6.634;2022-09-02T03:38:58;16.80;99.90
12959;DHT22;6544;51.666;6.634;2022-09-02T03:41:26;16.70;99.90
12959;DHT22;6544;51.666;6.634;2022-09-02T03:43:53;16.70;99.90
12959;DHT22;6544;51.666;6.634;2022-09-02T03:46:20;16.70;99.90
12959;DHT22;6544;51.666;6.634;2022-09-02T03:48:47;16.60;99.90
12959;DHT22;6544;51.666;6.634;2022-09-02T03:51:16;16.60;99.90
12959;DHT22;6544;51.666;6.634;2022-09-02T03:53:43;16.70;99.90
12959;DHT22;6544;51.666;6.634;2022-09-02T03:56:12;16.70;99.90
12959;DHT22;6544;51.666;6.634;2022-09-02T03:58:42;16.70;99.90
12959;DHT22;6544;51.666;6.634;2022-09-02T04:01:13;16.60;99.90
12959;DHT22;6544;51.666;6.634;2022-09-02T04:03:40;16.60;99.90
12959;DHT22;6544;51.666;6.634;2022-09-02T04:06:08;16.50;99.90
12959;DHT22;6544;51.666;6.634;2022-09-02T04:08:37;16.50;99.90
12959;DHT22;6544;51.666;6.634;2022-09-02T04:11:06;16.60;99.90
12959;DHT22;6544;51.666;6.634;2022-09-02T04:13:34;16.50;99.90
12959;DHT22;6544;51.666;6.634;2022-09-02T04:16:07;16.50;99.90
12959;DHT22;6544;51.666;6.634;2022-09-02T04:21:56;16.60;99.90
12959;DHT22;6544;51.666;6.634;2022-09-02T04:24:23;16.60;99.90
12959;DHT22;6544;51.666;6.634;2022-09-02T04:26:49;16.60;99.90
12959;DHT22;6544;51.666;6.634;2022-09-02T04:29:17;16.60;99.90
12959;DHT22;6544;51.666;6.634;2022-09-02T04:31:46;16.50;99.90
12959;DHT22;6544;51.666;6.634;2022-09-02T04:34:12;16.50;99.90
12959;DHT22;6544;51.666;6.634;2022-09-02T04:36:39;16.50;99.90
12959;DHT22;6544;51.666;6.634;2022-09-02T04:39:06;16.60;99.90
12959;DHT22;6544;51.666;6.634;2022-09-02T04:41:34;16.60;99.90
12959;DHT22;6544;51.666;6.634;2022-09-02T04:44:03;16.50;99.90
12959;DHT22;6544;51.666;6.634;2022-09-02T04:46:31;16.60;99.90
12959;DHT22;6544;51.666;6.634;2022-09-02T04:49:00;16.50;99.90
12959;DHT22;6544;51.666;6.634;2022-09-02T04:51:27;16.60;99.90
12959;DHT22;6544;51.666;6.634;2022-09-02T04:53:54;16.60;99.90
12959;DHT22;6544;51.666;6.634;2022-09-02T04:56:23;16.60;99.90
12959;DHT22;6544;51.666;6.634;2022-09-02T04:58:54;16.70;99.90
12959;DHT22;6544;51.666;6.634;2022-09-02T05:01:23;16.60;99.90
12959;DHT22;6544;51.666;6.634;2022-09-02T05:03:51;16.60;99.90
12959;DHT22;6544;51.666;6.634;2022-09-02T05:06:22;16.60;99.90
12959;DHT22;6544;51.666;6.634;2022-09-02T05:08:52;16.60;99.90
12959;DHT22;6544;51.666;6.634;2022-09-02T05:11:20;16.60;99.90
12959;DHT22;6544;51.666;6.634;2022-09-02T05:13:49;16.60;99.90
12959;DHT22;6544;51.666;6.634;2022-09-02T05:16:18;16.60;99.90
12959;DHT22;6544;51.666;6.634;2022-09-02T05:18:45;16.60;99.90
12959;DHT22;6544;51.666;6.634;2022-09-02T05:21:12;16.60;99.90
12959;DHT22;6544;51.666;6.634;2022-09-02T05:23:41;16.50;99.90
12959;DHT22;6544;51.666;6.634;2022-09-02T05:26:10;16.50;99.90
12959;DHT22;6544;51.666;6.634;2022-09-02T05:28:38;16.50;99.90
12959;DHT22;6544;51.666;6.634;2022-09-02T05:31:07;16.50;99.90
12959;DHT22;6544;51.666;6.634;2022-09-02T05:33:35;16.60;99.90
12959;DHT22;6544;51.666;6.634;2022-09-02T05:36:06;16.60;99.90
12959;DHT22;6544;51.666;6.634;2022-09-02T05:38:34;16.60;99.90
12959;DHT22;6544;51.666;6.634;2022-09-02T05:41:05;16.50;99.90
12959;DHT22;6544;51.666;6.634;2022-09-02T05:43:34;16.50;99.90
12959;DHT22;6544;51.666;6.634;2022-09-02T05:46:04;16.50;99.90
12959;DHT22;6544;51.666;6.634;2022-09-02T05:48:32;16.50;99.90
12959;DHT22;6544;51.666;6.634;2022-09-02T05:51:17;16.50;99.90
12959;DHT22;6544;51.666;6.634;2022-09-02T05:53:44;16.50;99.90
12959;DHT22;6544;51.666;6.634;2022-09-02T05:56:13;16.50;99.90
12959;DHT22;6544;51.666;6.634;2022-09-02T05:58:40;16.50;99.90
12959;DHT22;6544;51.666;6.634;2022-09-02T06:01:08;16.50;99.90
12959;DHT22;6544;51.666;6.634;2022-09-02T06:03:35;16.50;99.90
12959;DHT22;6544;51.666;6.634;2022-09-02T06:06:03;16.50;99.90
12959;DHT22;6544;51.666;6.634;2022-09-02T06:08:31;16.50;1.00
12959;DHT22;6544;51.666;6.634;2022-09-02T06:10:58;16.60;99.90
12959;DHT22;6544;51.666;6.634;2022-09-02T06:13:27;16.60;99.90
12959;DHT22;6544;51.666;6.634;2022-09-02T06:15:54;16.60;99.90
12959;DHT22;6544;51.666;6.634;2022-09-02T06:18:22;16.60;99.90
12959;DHT22;6544;51.666;6.634;2022-09-02T06:20:50;16.70;99.90
12959;DHT22;6544;51.666;6.634;2022-09-02T06:23:17;16.70;99.90
12959;DHT22;6544;51.666;6.634;2022-09-02T06:25:46;16.70;99.90
12959;DHT22;6544;51.666;6.634;2022-09-02T06:28:14;16.70;99.90
12959;DHT22;6544;51.666;6.634;2022-09-02T06:30:44;16.70;99.90
12959;DHT22;6544;51.666;6.634;2022-09-02T06:33:11;16.70;1.00
12959;DHT22;6544;51.666;6.634;2022-09-02T06:35:40;16.70;99.90
12959;DHT22;6544;51.666;6.634;2022-09-02T06:38:07;16.80;1.00
12959;DHT22;6544;51.666;6.634;2022-09-02T06:40:35;16.90;99.90
12959;DHT22;6544;51.666;6.634;2022-09-02T06:43:03;17.00;99.90
12959;DHT22;6544;51.666;6.634;2022-09-02T06:45:30;17.00;1.00
12959;DHT22;6544;51.666;6.634;2022-09-02T06:47:58;17.00;99.90
12959;DHT22;6544;51.666;6.634;2022-09-02T06:50:26;17.00;99.90
12959;DHT22;6544;51.666;6.634;2022-09-02T06:52:53;17.10;99.90
12959;DHT22;6544;51.666;6.634;2022-09-02T06:55:20;17.10;1.00
12959;DHT22;6544;51.666;6.634;2022-09-02T06:57:47;17.10;1.00
12959;DHT22;6544;51.666;6.634;2022-09-02T07:00:14;17.10;99.90
12959;DHT22;6544;51.666;6.634;2022-09-02T07:02:42;17.10;99.90
12959;DHT22;6544;51.666;6.634;2022-09-02T07:05:30;17.20;99.90
12959;DHT22;6544;51.666;6.634;2022-09-02T07:07:56;17.20;99.90
12959;DHT22;6544;51.666;6.634;2022-09-02T07:10:23;17.30;99.90
12959;DHT22;6544;51.666;6.634;2022-09-02T07:12:50;17.30;1.00
12959;DHT22;6544;51.666;6.634;2022-09-02T07:15:17;17.40;1.00
12959;DHT22;6544;51.666;6.634;2022-09-02T07:17:44;17.50;99.90
12959;DHT22;6544;51.666;6.634;2022-09-02T07:20:11;17.60;99.90
12959;DHT22;6544;51.666;6.634;2022-09-02T07:22:40;17.80;99.90
12959;DHT22;6544;51.666;6.634;2022-09-02T07:25:08;17.90;99.90
12959;DHT22;6544;51.666;6.634;2022-09-02T07:27:35;18.10;99.90
12959;DHT22;6544;51.666;6.634;2022-09-02T07:30:06;18.30;99.90
12959;DHT22;6544;51.666;6.634;2022-09-02T07:32:33;18.50;99.90
12959;DHT22;6544;51.666;6.634;2022-09-02T07:35:00;18.60;99.90
12959;DHT22;6544;51.666;6.634;2022-09-02T07:37:27;18.70;99.90
12959;DHT22;6544;51.666;6.634;2022-09-02T07:39:55;18.90;99.90
12959;DHT22;6544;51.666;6.634;2022-09-02T07:42:23;18.90;99.90
12959;DHT22;6544;51.666;6.634;2022-09-02T07:44:50;18.80;99.90
12959;DHT22;6544;51.666;6.634;2022-09-02T07:47:17;18.80;99.90
12959;DHT22;6544;51.666;6.634;2022-09-02T07:49:43;18.70;99.90
12959;DHT22;6544;51.666;6.634;2022-09-02T07:52:10;18.70;99.90
12959;DHT22;6544;51.666;6.634;2022-09-02T07:54:37;18.60;99.90
12959;DHT22;6544;51.666;6.634;2022-09-02T07:57:06;18.70;99.90
12959;DHT22;6544;51.666;6.634;2022-09-02T07:59:33;18.60;99.90
12959;DHT22;6544;51.666;6.634;2022-09-02T08:02:00;18.70;99.90
12959;DHT22;6544;51.666;6.634;2022-09-02T08:04:27;18.60;99.90
12959;DHT22;6544;51.666;6.634;2022-09-02T08:06:55;18.60;99.90
12959;DHT22;6544;51.666;6.634;2022-09-02T08:09:22;18.50;99.90
12959;DHT22;6544;51.666;6.634;2022-09-02T08:11:50;18.60;99.90
12959;DHT22;6544;51.666;6.634;2022-09-02T08:14:21;18.60;99.90
12959;DHT22;6544;51.666;6.634;2022-09-02T08:16:51;18.60;99.90
12959;DHT22;6544;51.666;6.634;2022-09-02T08:19:18;18.70;99.90
12959;DHT22;6544;51.666;6.634;2022-09-02T08:21:45;18.80;99.90
12959;DHT22;6544;51.666;6.634;2022-09-02T08:24:12;18.80;99.90
12959;DHT22;6544;51.666;6.634;2022-09-02T08:26:39;18.90;99.90
12959;DHT22;6544;51.666;6.634;2022-09-02T08:29:06;19.00;99.90
12959;DHT22;6544;51.666;6.634;2022-09-02T08:31:36;19.10;99.90
12959;DHT22;6544;51.666;6.634;2022-09-02T08:34:03;19.30;99.90
12959;DHT22;6544;51.666;6.634;2022-09-02T08:36:30;19.60;99.90
12959;DHT22;6544;51.666;6.634;2022-09-02T08:38:59;19.80;99.90
12959;DHT22;6544;51.666;6.634;2022-09-02T08:41:33;20.10;99.90
12959;DHT22;6544;51.666;6.634;2022-09-02T08:44:03;20.30;99.90
12959;DHT22;6544;51.666;6.634;2022-09-02T08:46:35;20.40;99.90
12959;DHT22;6544;51.666;6.634;2022-09-02T08:49:06;20.60;99.90
12959;DHT22;6544;51.666;6.634;2022-09-02T08:51:37;20.80;99.90
12959;DHT22;6544;51.666;6.634;2022-09-02T08:54:09;20.80;99.90
12959;DHT22;6544;51.666;6.634;2022-09-02T08:56:39;20.90;99.90
12959;DHT22;6544;51.666;6.634;2022-09-02T08:59:06;21.10;99.90
12959;DHT22;6544;51.666;6.634;2022-09-02T09:01:44;21.10;72.60
12959;DHT22;6544;51.666;6.634;2022-09-02T09:04:25;21.10;61.20
12959;DHT22;6544;51.666;6.634;2022-09-02T09:07:19;20.90;1.00
12959;DHT22;6544;51.666;6.634;2022-09-02T09:10:13;20.90;26.30
12959;DHT22;6544;51.666;6.634;2022-09-02T09:13:05;20.90;97.80
12959;DHT22;6544;51.666;6.634;2022-09-02T09:15:43;20.90;99.90
12959;DHT22;6544;51.666;6.634;2022-09-02T09:18:19;21.10;52.30
12959;DHT22;6544;51.666;6.634;2022-09-02T09:20:46;21.30;69.20
12959;DHT22;6544;51.666;6.634;2022-09-02T09:23:24;21.40;52.70
12959;DHT22;6544;51.666;6.634;2022-09-02T09:25:56;21.60;45.90
12959;DHT22;6544;51.666;6.634;2022-09-02T09:28:26;21.70;10.60
12959;DHT22;6544;51.666;6.634;2022-09-02T09:30:53;21.80;1.00
12959;DHT22;6544;51.666;6.634;2022-09-02T09:33:22;21.80;1.00
12959;DHT22;6544;51.666;6.634;2022-09-02T09:35:50;21.90;1.00
12959;DHT22;6544;51.666;6.634;2022-09-02T09:38:27;22.00;1.00
12959;DHT22;6544;51.666;6.634;2022-09-02T09:41:10;22.00;2.30
12959;DHT22;6544;51.666;6.634;2022-09-02T09:43:39;22.00;2.60
12959;DHT22;6544;51.666;6.634;2022-09-02T09:46:26;22.10;13.80
12959;DHT22;6544;51.666;6.634;2022-09-02T09:48:55;22.20;1.00
12959;DHT22;6544;51.666;6.634;2022-09-02T09:51:21;22.40;42.60
12959;DHT22;6544;51.666;6.634;2022-09-02T09:53:50;22.60;64.20
12959;DHT22;6544;51.666;6.634;2022-09-02T09:56:28;22.70;1.00
12959;DHT22;6544;51.666;6.634;2022-09-02T09:58:56;22.80;1.00
12959;DHT22;6544;51.666;6.634;2022-09-02T10:01:27;22.90;1.00
12959;DHT22;6544;51.666;6.634;2022-09-02T10:03:58;23.00;1.00
12959;DHT22;6544;51.666;6.634;2022-09-02T10:06:36;23.10;1.00
12959;DHT22;6544;51.666;6.634;2022-09-02T10:09:06;23.30;1.00
12959;DHT22;6544;51.666;6.634;2022-09-02T10:11:34;23.30;1.00
12959;DHT22;6544;51.666;6.634;2022-09-02T10:14:03;23.40;1.00
12959;DHT22;6544;51.666;6.634;2022-09-02T10:16:38;23.50;1.00
12959;DHT22;6544;51.666;6.634;2022-09-02T10:19:14;23.60;1.00
12959;DHT22;6544;51.666;6.634;2022-09-02T10:22:08;23.80;1.00
12959;DHT22;6544;51.666;6.634;2022-09-02T10:24:53;24.00;1.00
12959;DHT22;6544;51.666;6.634;2022-09-02T10:27:36;24.10;1.00
12959;DHT22;6544;51.666;6.634;2022-09-02T10:30:10;24.20;1.00
12959;DHT22;6544;51.666;6.634;2022-09-02T10:32:49;24.30;1.00
12959;DHT22;6544;51.666;6.634;2022-09-02T10:35:26;24.40;1.00
12959;DHT22;6544;51.666;6.634;2022-09-02T10:38:06;24.60;1.00
12959;DHT22;6544;51.666;6.634;2022-09-02T10:40:40;24.60;1.00
12959;DHT22;6544;51.666;6.634;2022-09-02T10:43:14;24.60;1.00
12959;DHT22;6544;51.666;6.634;2022-09-02T10:45:47;24.70;1.00
12959;DHT22;6544;51.666;6.634;2022-09-02T10:48:29;24.80;1.00
12959;DHT22;6544;51.666;6.634;2022-09-02T10:51:05;25.00;1.00
12959;DHT22;6544;51.666;6.634;2022-09-02T10:53:42;25.10;1.00
12959;DHT22;6544;51.666;6.634;2022-09-02T10:56:15;25.30;1.00
12959;DHT22;6544;51.666;6.634;2022-09-02T10:58:51;25.40;1.00
12959;DHT22;6544;51.666;6.634;2022-09-02T11:01:22;25.40;1.00
12959;DHT22;6544;51.666;6.634;2022-09-02T11:04:04;25.50;1.00
12959;DHT22;6544;51.666;6.634;2022-09-02T11:06:38;25.60;1.00
12959;DHT22;6544;51.666;6.634;2022-09-02T11:09:08;25.60;1.00
12959;DHT22;6544;51.666;6.634;2022-09-02T11:11:38;25.60;1.00
12959;DHT22;6544;51.666;6.634;2022-09-02T11:14:16;25.60;1.00
12959;DHT22;6544;51.666;6.634;2022-09-02T11:16:49;25.80;1.00
12959;DHT22;6544;51.666;6.634;2022-09-02T11:19:22;25.80;1.00
12959;DHT22;6544;51.666;6.634;2022-09-02T11:21:58;25.80;1.00
12959;DHT22;6544;51.666;6.634;2022-09-02T11:24:30;25.80;1.00
12959;DHT22;6544;51.666;6.634;2022-09-02T11:27:04;25.90;1.00
12959;DHT22;6544;51.666;6.634;2022-09-02T11:29:39;26.00;1.00
12959;DHT22;6544;51.666;6.634;2022-09-02T11:32:14;26.10;1.00
12959;DHT22;6544;51.666;6.634;2022-09-02T11:34:45;26.30;1.00
12959;DHT22;6544;51.666;6.634;2022-09-02T11:37:25;26.30;1.00
12959;DHT22;6544;51.666;6.634;2022-09-02T11:39:56;26.20;1.00
12959;DHT22;6544;51.666;6.634;2022-09-02T11:42:43;26.20;1.00
12959;DHT22;6544;51.666;6.634;2022-09-02T11:48:33;26.30;1.00
12959;DHT22;6544;51.666;6.634;2022-09-02T11:51:22;26.10;1.00
12959;DHT22;6544;51.666;6.634;2022-09-02T11:53:56;26.10;1.00
12959;DHT22;6544;51.666;6.634;2022-09-02T11:56:30;26.10;1.00
12959;DHT22;6544;51.666;6.634;2022-09-02T11:59:01;26.20;1.00
12959;DHT22;6544;51.666;6.634;2022-09-02T12:01:35;26.10;1.00
12959;DHT22;6544;51.666;6.634;2022-09-02T12:04:05;26.10;1.00
12959;DHT22;6544;51.666;6.634;2022-09-02T12:06:32;26.10;1.00
12959;DHT22;6544;51.666;6.634;2022-09-02T12:09:08;26.00;1.00
12959;DHT22;6544;51.666;6.634;2022-09-02T12:11:44;26.00;1.00
12959;DHT22;6544;51.666;6.634;2022-09-02T12:17:32;26.20;1.00
12959;DHT22;6544;51.666;6.634;2022-09-02T12:20:02;26.40;1.00
12959;DHT22;6544;51.666;6.634;2022-09-02T12:22:37;26.50;1.00
12959;DHT22;6544;51.666;6.634;2022-09-02T12:25:33;26.60;1.00
12959;DHT22;6544;51.666;6.634;2022-09-02T12:28:15;26.50;1.00
12959;DHT22;6544;51.666;6.634;2022-09-02T12:31:12;26.40;1.00
12959;DHT22;6544;51.666;6.634;2022-09-02T12:33:41;26.30;1.00
12959;DHT22;6544;51.666;6.634;2022-09-02T12:36:47;26.50;1.00
12959;DHT22;6544;51.666;6.634;2022-09-02T12:39:53;26.60;1.00
12959;DHT22;6544;51.666;6.634;2022-09-02T12:42:25;26.50;1.00
12959;DHT22;6544;51.666;6.634;2022-09-02T12:45:04;26.50;1.00
12959;DHT22;6544;51.666;6.634;2022-09-02T12:47:42;26.50;1.00
12959;DHT22;6544;51.666;6.634;2022-09-02T12:50:19;26.60;1.00
12959;DHT22;6544;51.666;6.634;2022-09-02T12:52:50;26.70;1.00
12959;DHT22;6544;51.666;6.634;2022-09-02T12:55:22;26.80;1.00
12959;DHT22;6544;51.666;6.634;2022-09-02T12:57:53;26.70;1.00
12959;DHT22;6544;51.666;6.634;2022-09-02T13:00:34;26.50;1.00
12959;DHT22;6544;51.666;6.634;2022-09-02T13:03:20;26.60;1.00
12959;DHT22;6544;51.666;6.634;2022-09-02T13:05:55;26.60;1.00
12959;DHT22;6544;51.666;6.634;2022-09-02T13:17:53;26.20;1.00
12959;DHT22;6544;51.666;6.634;2022-09-02T13:20:52;26.20;1.00
12959;DHT22;6544;51.666;6.634;2022-09-02T13:23:46;26.20;99.90
12959;DHT22;6544;51.666;6.634;2022-09-02T13:26:35;26.30;1.00
12959;DHT22;6544;51.666;6.634;2022-09-02T13:32:13;26.10;1.00
12959;DHT22;6544;51.666;6.634;2022-09-02T13:34:41;26.30;99.90
12959;DHT22;6544;51.666;6.634;2022-09-02T13:49:22;26.00;99.90
12959;DHT22;6544;51.666;6.634;2022-09-02T13:51:52;25.80;99.90
12959;DHT22;6544;51.666;6.634;2022-09-02T13:54:33;25.80;99.90
12959;DHT22;6544;51.666;6.634;2022-09-02T13:57:03;25.80;99.90
12959;DHT22;6544;51.666;6.634;2022-09-02T13:59:36;25.80;99.90
12959;DHT22;6544;51.666;6.634;2022-09-02T14:02:25;26.00;99.90
12959;DHT22;6544;51.666;6.634;2022-09-02T14:04:57;26.10;99.90
12959;DHT22;6544;51.666;6.634;2022-09-02T14:07:30;26.20;99.90
12959;DHT22;6544;51.666;6.634;2022-09-02T14:10:00;26.30;99.90
12959;DHT22;6544;51.666;6.634;2022-09-02T14:12:30;26.30;99.90
12959;DHT22;6544;51.666;6.634;2022-09-02T14:14:58;26.30;99.90
12959;DHT22;6544;51.666;6.634;2022-09-02T14:17:29;26.30;99.90
12959;DHT22;6544;51.666;6.634;2022-09-02T14:20:16;26.20;99.90
12959;DHT22;6544;51.666;6.634;2022-09-02T14:22:51;26.10;99.90
12959;DHT22;6544;51.666;6.634;2022-09-02T14:25:19;26.00;99.90
12959;DHT22;6544;51.666;6.634;2022-09-02T14:27:50;26.00;99.90
12959;DHT22;6544;51.666;6.634;2022-09-02T14:30:30;26.00;99.90
12959;DHT22;6544;51.666;6.634;2022-09-02T14:33:39;25.90;99.90
12959;DHT22;6544;51.666;6.634;2022-09-02T14:36:11;25.80;99.90
12959;DHT22;6544;51.666;6.634;2022-09-02T14:38:50;25.70;99.90
12959;DHT22;6544;51.666;6.634;2022-09-02T14:41:21;25.80;99.90
12959;DHT22;6544;51.666;6.634;2022-09-02T14:43:50;25.70;99.90
12959;DHT22;6544;51.666;6.634;2022-09-02T14:46:26;25.70;99.90
12959;DHT22;6544;51.666;6.634;2022-09-02T14:49:00;25.80;99.90
12959;DHT22;6544;51.666;6.634;2022-09-02T14:51:34;25.90;99.90
12959;DHT22;6544;51.666;6.634;2022-09-02T14:54:02;25.90;99.90
12959;DHT22;6544;51.666;6.634;2022-09-02T14:56:49;26.00;99.90
12959;DHT22;6544;51.666;6.634;2022-09-02T14:59:17;26.00;99.90
12959;DHT22;6544;51.666;6.634;2022-09-02T15:01:46;26.00;99.90
12959;DHT22;6544;51.666;6.634;2022-09-02T15:04:15;26.00;99.90
12959;DHT22;6544;51.666;6.634;2022-09-02T15:06:45;26.10;99.90
12959;DHT22;6544;51.666;6.634;2022-09-02T15:09:13;26.00;99.90
12959;DHT22;6544;51.666;6.634;2022-09-02T15:11:42;26.00;99.90
12959;DHT22;6544;51.666;6.634;2022-09-02T15:14:11;26.00;99.90
12959;DHT22;6544;51.666;6.634;2022-09-02T15:16:38;26.00;99.90
12959;DHT22;6544;51.666;6.634;2022-09-02T15:19:05;26.00;99.90
12959;DHT22;6544;51.666;6.634;2022-09-02T15:21:32;25.90;99.90
12959;DHT22;6544;51.666;6.634;2022-09-02T15:24:01;25.80;99.90
12959;DHT22;6544;51.666;6.634;2022-09-02T15:26:28;25.70;99.90
12959;DHT22;6544;51.666;6.634;2022-09-02T15:28:56;25.60;99.90
12959;DHT22;6544;51.666;6.634;2022-09-02T15:31:23;25.60;99.90
12959;DHT22;6544;51.666;6.634;2022-09-02T15:33:51;25.50;99.90
12959;DHT22;6544;51.666;6.634;2022-09-02T15:36:18;25.50;99.90
12959;DHT22;6544;51.666;6.634;2022-09-02T15:38:46;25.50;99.90
12959;DHT22;6544;51.666;6.634;2022-09-02T15:41:16;25.50;99.90
12959;DHT22;6544;51.666;6.634;2022-09-02T15:43:46;25.50;99.90
12959;DHT22;6544;51.666;6.634;2022-09-02T15:46:19;25.50;99.90
12959;DHT22;6544;51.666;6.634;2022-09-02T15:48:47;25.40;99.90
12959;DHT22;6544;51.666;6.634;2022-09-02T15:51:15;25.40;99.90
12959;DHT22;6544;51.666;6.634;2022-09-02T15:53:45;25.40;99.90
12959;DHT22;6544;51.666;6.634;2022-09-02T15:56:19;25.30;99.90
12959;DHT22;6544;51.666;6.634;2022-09-02T15:58:46;25.30;99.90
12959;DHT22;6544;51.666;6.634;2022-09-02T16:01:13;25.30;99.90
12959;DHT22;6544;51.666;6.634;2022-09-02T16:03:41;25.30;99.90
12959;DHT22;6544;51.666;6.634;2022-09-02T16:06:08;25.30;99.90
12959;DHT22;6544;51.666;6.634;2022-09-02T16:08:36;25.30;99.90
12959;DHT22;6544;51.666;6.634;2022-09-02T16:11:05;25.30;99.90
12959;DHT22;6544;51.666;6.634;2022-09-02T16:13:34;25.30;99.90
12959;DHT22;6544;51.666;6.634;2022-09-02T16:16:02;25.30;99.90
12959;DHT22;6544;51.666;6.634;2022-09-02T16:18:30;25.20;99.90
12959;DHT22;6544;51.666;6.634;2022-09-02T16:20:57;25.20;99.90
12959;DHT22;6544;51.666;6.634;2022-09-02T16:23:24;25.10;99.90
12959;DHT22;6544;51.666;6.634;2022-09-02T16:26:12;25.10;99.90
12959;DHT22;6544;51.666;6.634;2022-09-02T16:28:43;25.10;99.90
12959;DHT22;6544;51.666;6.634;2022-09-02T16:31:12;25.10;99.90
12959;DHT22;6544;51.666;6.634;2022-09-02T16:33:42;25.10;99.90
12959;DHT22;6544;51.666;6.634;2022-09-02T16:36:09;25.00;99.90
12959;DHT22;6544;51.666;6.634;2022-09-02T16:38:36;24.90;99.90
12959;DHT22;6544;51.666;6.634;2022-09-02T16:41:04;25.00;99.90
12959;DHT22;6544;51.666;6.634;2022-09-02T16:43:31;25.00;99.90
12959;DHT22;6544;51.666;6.634;2022-09-02T16:46:00;25.00;99.90
12959;DHT22;6544;51.666;6.634;2022-09-02T16:48:30;25.00;99.90
12959;DHT22;6544;51.666;6.634;2022-09-02T16:51:02;24.90;99.90